McChord Field

Airport
ICAO code: 
KTCM
Summary
ICAO Region: 
NAM
Territory: 
Location: 
Lakewood, Washington,
Coordinates: 
Aerial View: 
47° 8' 3.706" N, 122° 29' 5.208" W
Airport LOS: 
Parallel Runway Operation
Metar
Observation
KTCM 021358Z 18004KT 10SM OVC130 08/07 A3020 RMK AO2A SLP231 T00800068 $
Station
Tacoma / McChord Air Force Base
Date/Time
2021-12-02 13:58:00
Wind direction
180°
Wind speed
04 kts
Lowest cloud amount
overcast
Temperature
8°C
Dew point
6.8°C
Humidity
92%
Weather condition
n/a

Description

McChord Field, formerly known as McChord Air Force Base, is a United States Air Force facility located in Pierce County, Washington, approximately 10 km southwest of Lakewood. McChord AFB was consolidated with United States Army Fort Lewis in February 2010 to become part of the Joint Base Lewis-McChord complex.

Climatology

Dry-summer subtropical ”Mediterranean" climate (Köppen climate classification Csb) - characterized by warm, dry summers and mild winters.

Runways

Designator Length Width Surface Rops
160/340 914 18 ASPH No/No
16/34 3081 46 ASP Yes/Yes
Airport map: 
Aerial View: 

SKYbrary Partners:

Safety knowledge contributed by: